createdAt,value
2023-03-06T00:01:05.862Z,95473.63
2023-03-06T00:03:33.821Z,95472.81
2023-03-06T00:06:00.834Z,95473.78
2023-03-06T00:08:27.877Z,95463.28
2023-03-06T00:10:54.584Z,95469.44
2023-03-06T00:13:21.085Z,95464.22
2023-03-06T00:15:48.714Z,95457.22
2023-03-06T00:18:15.411Z,95453.88
2023-03-06T00:20:42.787Z,95456.53
2023-03-06T00:23:09.667Z,95451.31
2023-03-06T00:25:38.822Z,95444.16
2023-03-06T00:28:06.173Z,95447.81
2023-03-06T00:30:32.881Z,95438.13
2023-03-06T00:32:59.386Z,95435.59
2023-03-06T00:35:26.081Z,95438.41
2023-03-06T00:37:52.671Z,95431.41
2023-03-06T00:40:19.274Z,95427.19
2023-03-06T00:42:46.940Z,95431.66
2023-03-06T00:45:13.631Z,95426.47
2023-03-06T00:47:40.303Z,95414.97
2023-03-06T00:50:07.532Z,95405.44
2023-03-06T00:52:34.112Z,95409.94
2023-03-06T00:55:00.796Z,95413.69
2023-03-06T00:57:27.383Z,95408.34
2023-03-06T00:59:53.882Z,95400.53
2023-03-06T01:02:21.070Z,95400.53
2023-03-06T01:04:50.518Z,95401.59
2023-03-06T01:07:16.973Z,95390.13
2023-03-06T01:09:43.940Z,95378.78
2023-03-06T01:12:10.422Z,95378.91
2023-03-06T01:14:36.952Z,95373.56
2023-03-06T01:17:03.443Z,95367.53
2023-03-06T01:19:30.234Z,95366.84
2023-03-06T01:21:56.738Z,95362.50
2023-03-06T01:24:25.639Z,95358.13
2023-03-06T01:26:54.488Z,95350.16
2023-03-06T01:29:21.011Z,95342.31
2023-03-06T01:31:47.631Z,95337.97
2023-03-06T01:34:14.277Z,95330.94
2023-03-06T01:36:40.792Z,95329.28
2023-03-06T01:39:07.287Z,95328.44
2023-03-06T01:41:33.770Z,95324.91
2023-03-06T01:44:00.340Z,95327.56
2023-03-06T01:46:32.210Z,95328.56
2023-03-06T01:48:58.675Z,95323.38
2023-03-06T01:51:26.046Z,95322.53
2023-03-06T01:53:52.666Z,95318.19
2023-03-06T01:56:19.122Z,95316.50
2023-03-06T01:58:47.475Z,95309.50
2023-03-06T02:01:14.619Z,95308.66
2023-03-06T02:03:41.526Z,95294.66
2023-03-06T02:06:09.654Z,95299.97
2023-03-06T02:08:36.165Z,95296.59
2023-03-06T02:11:08.492Z,95294.91
2023-03-06T02:13:35.764Z,95290.41
2023-03-06T02:16:02.281Z,95285.09
2023-03-06T02:18:29.120Z,95279.06
2023-03-06T02:20:59.825Z,95275.56
2023-03-06T02:23:26.614Z,95272.19
2023-03-06T02:25:53.095Z,95271.38
2023-03-06T02:28:20.795Z,95265.22
2023-03-06T02:30:48.415Z,95269.66
2023-03-06T02:33:16.028Z,95260.84
2023-03-06T02:35:55.800Z,95264.50
2023-03-06T02:38:24.463Z,95257.47
2023-03-06T02:40:51.964Z,95259.31
2023-03-06T02:43:21.552Z,95258.44
2023-03-06T02:45:49.099Z,95248.75
2023-03-06T02:48:15.978Z,95244.41
2023-03-06T02:50:42.627Z,95246.22
2023-03-06T02:53:09.488Z,95246.22
2023-03-06T02:55:36.096Z,95243.56
2023-03-06T02:58:02.933Z,95240.09
2023-03-06T03:00:30.067Z,95244.56
2023-03-06T03:02:56.628Z,95232.22
2023-03-06T03:05:23.371Z,95232.22
2023-03-06T03:07:57.233Z,95231.38
2023-03-06T03:10:24.469Z,95231.38
2023-03-06T03:12:51.253Z,95226.19
2023-03-06T03:15:17.852Z,95223.53
2023-03-06T03:17:44.545Z,95223.66
2023-03-06T03:20:12.595Z,95229.00
2023-03-06T03:22:39.204Z,95219.34
2023-03-06T03:25:06.305Z,95215.81
2023-03-06T03:27:32.814Z,95217.66
2023-03-06T03:29:59.767Z,95215.13
2023-03-06T03:32:28.503Z,95213.31
2023-03-06T03:34:57.292Z,95208.97
2023-03-06T03:37:25.780Z,95201.97
2023-03-06T03:39:53.771Z,95206.31
2023-03-06T03:42:20.245Z,95201.97
2023-03-06T03:44:46.738Z,95194.81
2023-03-06T03:47:13.251Z,95194.94
2023-03-06T03:49:40.868Z,95197.63
2023-03-06T03:52:08.193Z,95197.63
2023-03-06T03:54:36.114Z,95192.28
2023-03-06T03:57:02.571Z,95199.44
2023-03-06T03:59:33.382Z,95184.44
2023-03-06T04:02:22.885Z,95183.59
2023-03-06T04:05:05.019Z,95175.63
2023-03-06T04:07:32.476Z,95180.13
2023-03-06T04:09:59.289Z,95180.13
2023-03-06T04:12:27.606Z,95164.28
2023-03-06T04:14:54.290Z,95168.78
2023-03-06T04:17:22.160Z,95169.72
2023-03-06T04:19:49.324Z,95168.78
2023-03-06T04:22:16.758Z,95174.09
2023-03-06T04:24:43.356Z,95173.38
2023-03-06T04:27:10.030Z,95167.19
2023-03-06T04:29:37.600Z,95161.06
2023-03-06T04:32:04.595Z,95165.53
2023-03-06T04:34:31.452Z,95172.53
2023-03-06T04:37:18.431Z,95167.78
2023-03-06T04:40:04.289Z,95173.41
2023-03-06T04:42:49.261Z,95175.53
2023-03-06T04:45:34.590Z,95175.41
2023-03-06T04:48:20.043Z,95171.75
2023-03-06T04:51:04.966Z,95168.13
2023-03-06T04:53:49.931Z,95154.94
2023-03-06T04:56:34.703Z,95150.75
2023-03-06T04:59:19.983Z,95146.41
2023-03-06T05:02:05.278Z,95147.53
2023-03-06T05:04:50.593Z,95145.13
2023-03-06T05:07:35.450Z,95141.63
2023-03-06T05:10:20.616Z,95142.75
2023-03-06T05:13:05.658Z,95136.72
2023-03-06T05:15:50.586Z,95135.16
2023-03-06T05:18:35.894Z,95137.00
2023-03-06T05:21:20.840Z,95130.97
2023-03-06T05:24:05.814Z,95132.78
2023-03-06T05:26:51.203Z,95125.91
2023-03-06T05:29:35.968Z,95121.59
2023-03-06T05:32:21.842Z,95119.88
2023-03-06T05:35:07.225Z,95127.03
2023-03-06T05:37:52.362Z,95122.69
2023-03-06T05:40:39.495Z,95122.69
2023-03-06T05:43:24.857Z,95121.84
2023-03-06T05:46:10.604Z,95118.47
2023-03-06T05:48:57.374Z,95114.16
2023-03-06T05:51:42.428Z,95127.44
2023-03-06T05:54:27.717Z,95122.13
2023-03-06T05:57:12.911Z,95125.75
2023-03-06T05:59:57.946Z,95128.41
2023-03-06T06:02:43.521Z,95130.22
2023-03-06T06:05:28.658Z,95124.09
2023-03-06T06:08:13.565Z,95125.75
2023-03-06T06:10:58.452Z,95126.59
2023-03-06T06:13:43.904Z,95140.59
2023-03-06T06:16:29.169Z,95137.78
2023-03-06T06:19:18.569Z,95144.81
2023-03-06T06:22:03.923Z,95145.50
2023-03-06T06:24:48.685Z,95143.44
2023-03-06T06:27:34.072Z,95151.00
2023-03-06T06:30:18.935Z,95157.59
2023-03-06T06:33:03.741Z,95158.16
2023-03-06T06:35:49.032Z,95162.22
2023-03-06T06:38:34.673Z,95159.16
2023-03-06T06:41:39.269Z,95162.53
2023-03-06T06:44:24.367Z,95154.44
2023-03-06T06:47:25.743Z,95161.28
2023-03-06T06:50:12.390Z,95171.41
2023-03-06T06:52:57.155Z,95163.25
2023-03-06T06:55:42.943Z,95166.63
2023-03-06T06:58:28.114Z,95170.69
2023-03-06T07:01:13.614Z,95176.31
2023-03-06T07:03:58.938Z,95176.59
2023-03-06T07:06:44.159Z,95185.03
2023-03-06T07:09:30.794Z,95190.03
2023-03-06T07:12:16.056Z,95193.44
2023-03-06T07:15:01.172Z,95192.31
2023-03-06T07:17:48.933Z,95187.81
2023-03-06T07:20:34.812Z,95189.66
2023-03-06T07:23:20.099Z,95181.53
2023-03-06T07:26:05.439Z,95189.53
2023-03-06T07:28:53.151Z,95191.06
2023-03-06T07:31:38.797Z,95192.72
2023-03-06T07:34:23.923Z,95199.75
2023-03-06T07:37:08.664Z,95206.59
2023-03-06T07:39:53.840Z,95211.66
2023-03-06T07:42:39.269Z,95193.28
2023-03-06T07:45:29.380Z,95190.34
2023-03-06T07:48:14.746Z,95177.28
2023-03-06T07:51:01.229Z,95172.66
2023-03-06T07:53:46.334Z,95164.13
2023-03-06T07:56:31.338Z,95172.13
2023-03-06T07:59:16.178Z,95180.50
2023-03-06T08:02:01.564Z,95182.91
2023-03-06T08:04:51.726Z,95193.69
2023-03-06T08:07:36.818Z,95204.94
2023-03-06T08:10:21.589Z,95210.97
2023-03-06T08:13:06.553Z,95224.28
2023-03-06T08:15:51.476Z,95225.16
2023-03-06T08:18:38.318Z,95228.66
2023-03-06T08:21:24.076Z,95234.13
2023-03-06T08:24:09.164Z,95238.59
2023-03-06T08:26:53.930Z,95242.25
2023-03-06T08:29:39.101Z,95255.81
2023-03-06T08:32:23.954Z,95262.28
2023-03-06T08:35:09.258Z,95266.91
2023-03-06T08:37:54.044Z,95270.69
2023-03-06T08:40:38.894Z,95277.13
2023-03-06T08:43:23.528Z,95279.09
2023-03-06T08:46:09.692Z,95280.34
2023-03-06T08:48:54.416Z,95283.44
2023-03-06T08:51:39.276Z,95284.81
2023-03-06T08:54:24.262Z,95280.03
2023-03-06T08:57:09.213Z,95289.25
2023-03-06T08:59:54.700Z,95295.84
2023-03-06T09:02:40.011Z,95287.41
2023-03-06T09:05:25.351Z,95292.16
2023-03-06T09:08:10.426Z,95294.38
2023-03-06T09:10:55.563Z,95304.66
2023-03-06T09:13:41.652Z,95297.16
2023-03-06T09:16:26.920Z,95303.06
2023-03-06T09:19:12.082Z,95305.31
2023-03-06T09:21:57.884Z,95303.03
2023-03-06T09:24:42.793Z,95306.13
2023-03-06T09:27:30.471Z,95305.78
2023-03-06T09:30:16.389Z,95302.84
2023-03-06T09:33:01.361Z,95306.91
2023-03-06T09:35:54.178Z,95306.63
2023-03-06T09:38:39.376Z,95313.34
2023-03-06T09:41:34.452Z,95313.88
2023-03-06T09:44:20.542Z,95307.25
2023-03-06T09:47:20.998Z,95312.13
2023-03-06T09:50:09.858Z,95313.50
2023-03-06T09:53:16.593Z,95313.06
2023-03-06T09:56:18.174Z,95308.09
2023-03-06T09:59:13.553Z,95314.97
2023-03-06T10:02:03.528Z,95314.53
2023-03-06T10:04:50.811Z,95320.44
2023-03-06T10:07:42.322Z,95306.78
2023-03-06T10:10:28.904Z,95306.47
2023-03-06T10:13:32.759Z,95308.81
2023-03-06T10:16:31.010Z,95309.38
2023-03-06T10:19:16.896Z,95310.75
2023-03-06T10:22:02.163Z,95305.94
2023-03-06T10:25:11.891Z,95306.63
2023-03-06T10:28:03.675Z,95305.50
2023-03-06T10:30:48.587Z,95296.31
2023-03-06T10:33:40.069Z,95297.97
2023-03-06T10:36:27.200Z,95302.34
2023-03-06T10:39:17.024Z,95305.84
2023-03-06T10:42:02.073Z,95305.72
2023-03-06T10:44:47.460Z,95293.03
2023-03-06T10:47:35.324Z,95301.88
2023-03-06T10:50:25.414Z,95286.69
2023-03-06T10:53:19.666Z,95282.19
2023-03-06T10:56:05.066Z,95288.69
2023-03-06T10:58:53.228Z,95278.56
2023-03-06T11:01:38.558Z,95259.88
2023-03-06T11:04:30.001Z,95240.84
2023-03-06T11:07:15.324Z,95234.88
2023-03-06T11:10:05.549Z,95227.25
2023-03-06T11:13:07.586Z,95229.97
2023-03-06T11:15:57.600Z,95214.84
2023-03-06T11:18:43.235Z,95207.72
2023-03-06T11:21:30.344Z,95211.00
2023-03-06T11:24:17.503Z,95206.28
2023-03-06T11:27:03.634Z,95198.69
2023-03-06T11:29:49.513Z,95219.66
2023-03-06T11:32:42.316Z,95212.78
2023-03-06T11:35:47.631Z,95215.03
2023-03-06T11:38:39.174Z,95215.50
2023-03-06T11:41:35.773Z,95210.63
2023-03-06T11:44:47.315Z,95217.22
2023-03-06T11:47:33.653Z,95209.50
2023-03-06T11:50:32.120Z,95210.81
2023-03-06T11:53:20.731Z,95205.75
2023-03-06T11:56:24.119Z,95201.56
2023-03-06T11:59:29.580Z,95201.00
2023-03-06T12:02:14.402Z,95188.94
2023-03-06T12:05:17.683Z,95186.72
2023-03-06T12:08:13.483Z,95175.66
2023-03-06T12:11:02.122Z,95167.94
2023-03-06T12:16:43.452Z,95159.09
2023-03-06T12:19:30.772Z,95157.56
2023-03-06T12:22:39.150Z,95161.53
2023-03-06T12:25:59.532Z,95155.63
2023-03-06T12:29:06.584Z,95155.09
2023-03-06T12:32:03.580Z,95158.03
2023-03-06T12:34:51.696Z,95157.50
2023-03-06T12:37:47.510Z,95150.59
2023-03-06T12:40:36.221Z,95143.75
2023-03-06T12:43:26.971Z,95142.22
2023-03-06T12:46:19.134Z,95137.03
2023-03-06T12:49:05.956Z,95138.19
2023-03-06T12:51:51.386Z,95133.94
2023-03-06T12:54:37.745Z,95127.94
2023-03-06T12:57:23.259Z,95129.06
2023-03-06T13:00:08.470Z,95130.03
2023-03-06T13:03:02.749Z,95134.66
2023-03-06T13:06:00.000Z,95121.09
2023-03-06T13:08:45.850Z,95119.97
2023-03-06T13:11:49.826Z,95116.75
2023-03-06T13:14:54.652Z,95115.38
2023-03-06T13:17:40.916Z,95113.38
2023-03-06T13:20:35.005Z,95115.78
2023-03-06T13:23:29.438Z,95111.59
2023-03-06T13:26:46.689Z,95109.91
2023-03-06T13:29:37.864Z,95102.63
2023-03-06T13:32:28.977Z,95107.50
2023-03-06T13:35:32.593Z,95102.50
2023-03-06T13:38:29.678Z,95108.78
2023-03-06T13:41:20.712Z,95113.97
2023-03-06T13:44:26.306Z,95117.19
2023-03-06T13:47:19.701Z,95117.63
2023-03-06T13:50:18.471Z,95116.50
2023-03-06T13:53:06.725Z,95107.50
2023-03-06T13:56:04.249Z,95114.66
2023-03-06T13:59:07.840Z,95109.47
2023-03-06T14:01:56.615Z,95099.69
2023-03-06T14:04:46.845Z,95105.00
2023-03-06T14:07:40.428Z,95101.47
2023-03-06T14:10:25.865Z,95093.50
2023-03-06T14:13:15.275Z,95090.00
2023-03-06T14:16:00.721Z,95085.69
2023-03-06T14:18:47.404Z,95088.34
2023-03-06T14:21:37.030Z,95100.78
2023-03-06T14:24:27.412Z,95094.63
2023-03-06T14:27:21.192Z,95084.13
2023-03-06T14:30:06.888Z,95079.78
2023-03-06T14:32:53.714Z,95087.91
2023-03-06T14:35:39.073Z,95086.22
2023-03-06T14:38:24.403Z,95092.41
2023-03-06T14:41:11.736Z,95095.91
2023-03-06T14:44:21.525Z,95086.22
2023-03-06T14:47:25.857Z,95097.72
2023-03-06T14:50:21.399Z,95088.19
2023-03-06T14:53:14.016Z,95075.44
2023-03-06T14:56:00.516Z,95064.81
2023-03-06T14:58:51.052Z,95056.56
2023-03-06T15:01:37.221Z,95049.84
2023-03-06T15:04:22.151Z,95063.41
2023-03-06T15:07:08.292Z,95055.44
2023-03-06T15:09:53.818Z,95050.09
2023-03-06T15:12:39.368Z,95060.75
2023-03-06T15:15:31.371Z,95068.59
2023-03-06T15:18:28.539Z,95071.13
2023-03-06T15:21:18.800Z,95079.94
2023-03-06T15:24:19.341Z,95087.09
2023-03-06T15:27:05.793Z,95084.56
2023-03-06T15:29:51.038Z,95083.72
2023-03-06T15:32:42.330Z,95091.72
2023-03-06T15:35:27.490Z,95092.69
2023-03-06T15:38:26.672Z,95093.69
2023-03-06T15:41:26.840Z,95088.34
2023-03-06T15:44:13.130Z,95085.69
2023-03-06T15:47:08.539Z,95084.84
2023-03-06T15:49:54.432Z,95092.97
2023-03-06T15:52:39.229Z,95085.81
2023-03-06T15:55:28.089Z,95086.78
2023-03-06T15:58:14.836Z,95085.97
2023-03-06T16:01:00.089Z,95089.44
2023-03-06T16:03:45.413Z,95091.28
2023-03-06T16:06:30.354Z,95093.13
2023-03-06T16:09:15.689Z,95083.59
2023-03-06T16:12:00.923Z,95072.22
2023-03-06T16:14:47.606Z,95076.00
2023-03-06T16:17:32.657Z,95074.34
2023-03-06T16:20:18.697Z,95077.97
2023-03-06T16:23:07.880Z,95077.97
2023-03-06T16:25:52.597Z,95080.63
2023-03-06T16:28:41.219Z,95077.00
2023-03-06T16:31:26.472Z,95085.97
2023-03-06T16:34:11.790Z,95088.75
2023-03-06T16:36:56.734Z,95092.28
2023-03-06T16:39:42.239Z,95093.09
2023-03-06T16:42:27.612Z,95090.56
2023-03-06T16:45:12.979Z,95089.75
2023-03-06T16:47:59.420Z,95087.91
2023-03-06T16:50:45.516Z,95094.22
2023-03-06T16:53:30.499Z,95097.72
2023-03-06T16:56:16.053Z,95087.91
2023-03-06T16:59:01.223Z,95095.19
2023-03-06T17:01:45.985Z,95099.56
2023-03-06T17:04:31.443Z,95100.53
2023-03-06T17:07:16.691Z,95103.19
2023-03-06T17:10:01.767Z,95098.69
2023-03-06T17:12:46.762Z,95107.53
2023-03-06T17:15:32.294Z,95112.84
2023-03-06T17:18:17.582Z,95106.81
2023-03-06T17:21:02.336Z,95113.00
2023-03-06T17:23:47.467Z,95110.31
2023-03-06T17:26:32.731Z,95110.31
2023-03-06T17:29:17.885Z,95115.75
2023-03-06T17:32:03.121Z,95118.41
2023-03-06T17:34:48.239Z,95123.63
2023-03-06T17:37:33.225Z,95126.38
2023-03-06T17:40:18.958Z,95129.03
2023-03-06T17:43:03.893Z,95133.53
2023-03-06T17:45:49.356Z,95126.53
2023-03-06T17:48:34.516Z,95133.66
2023-03-06T17:51:19.573Z,95133.66
2023-03-06T17:54:04.505Z,95140.66
2023-03-06T17:56:49.329Z,95139.81
2023-03-06T17:59:34.421Z,95148.63
2023-03-06T18:02:19.727Z,95141.66
2023-03-06T18:05:04.987Z,95142.47
2023-03-06T18:07:50.010Z,95139.13
2023-03-06T18:10:35.370Z,95138.16
2023-03-06T18:13:20.992Z,95138.28
2023-03-06T18:16:06.810Z,95132.13
2023-03-06T18:18:52.557Z,95130.44
2023-03-06T18:21:38.181Z,95133.22
2023-03-06T18:24:23.395Z,95135.06
2023-03-06T18:27:08.245Z,95134.22
2023-03-06T18:29:55.456Z,95147.53
2023-03-06T18:32:40.691Z,95142.34
2023-03-06T18:35:25.766Z,95145.94
2023-03-06T18:38:11.142Z,95144.28
2023-03-06T18:40:56.024Z,95145.13
2023-03-06T18:43:40.840Z,95153.09
2023-03-06T18:46:26.478Z,95150.44
2023-03-06T18:49:12.323Z,95143.44
2023-03-06T18:51:57.119Z,95142.59
2023-03-06T18:54:42.108Z,95144.41
2023-03-06T18:57:29.287Z,95149.75
2023-03-06T19:00:15.344Z,95145.41
2023-03-06T19:03:00.472Z,95141.88
2023-03-06T19:05:46.044Z,95146.38
2023-03-06T19:08:31.303Z,95143.84
2023-03-06T19:11:16.802Z,95145.53
2023-03-06T19:14:01.810Z,95145.66
2023-03-06T19:16:47.175Z,95146.50
2023-03-06T19:19:32.240Z,95137.69
2023-03-06T19:22:17.663Z,95150.16
2023-03-06T19:25:03.882Z,95144.97
2023-03-06T19:27:49.013Z,95146.78
2023-03-06T19:30:34.367Z,95154.78
2023-03-06T19:33:19.700Z,95150.41
2023-03-06T19:36:05.768Z,95145.94
2023-03-06T19:38:52.933Z,95136.28
2023-03-06T19:41:37.836Z,95137.13
2023-03-06T19:44:23.366Z,95150.41
2023-03-06T19:47:08.467Z,95143.44
2023-03-06T19:49:53.420Z,95139.19
2023-03-06T19:52:39.015Z,95148.19
2023-03-06T19:55:28.584Z,95144.69
2023-03-06T19:58:13.618Z,95144.69
2023-03-06T20:01:09.124Z,95142.16
2023-03-06T20:03:58.407Z,95156.28
2023-03-06T20:06:46.551Z,95158.94
2023-03-06T20:09:35.004Z,95148.31
2023-03-06T20:12:20.168Z,95150.13
2023-03-06T20:15:05.090Z,95142.97
2023-03-06T20:17:50.000Z,95150.13
2023-03-06T20:20:37.696Z,95151.97
2023-03-06T20:23:22.659Z,95154.63
2023-03-06T20:26:11.915Z,95151.97
2023-03-06T20:28:57.510Z,95148.44
2023-03-06T20:31:43.906Z,95147.59
2023-03-06T20:34:29.184Z,95145.06
2023-03-06T20:37:14.308Z,95141.69
2023-03-06T20:39:59.056Z,95148.84
2023-03-06T20:42:44.285Z,95153.34
2023-03-06T20:45:29.451Z,95152.34
2023-03-06T20:48:14.357Z,95152.34
2023-03-06T20:51:03.075Z,95149.69
2023-03-06T20:53:48.054Z,95159.34
2023-03-06T20:56:33.833Z,95147.03
2023-03-06T20:59:19.140Z,95146.19
2023-03-06T21:02:04.713Z,95140.88
2023-03-06T21:04:49.939Z,95140.88
2023-03-06T21:07:35.903Z,95146.19
2023-03-06T21:10:21.134Z,95145.34
2023-03-06T21:13:06.238Z,95140.16
2023-03-06T21:15:51.039Z,95135.81
2023-03-06T21:18:35.983Z,95142.81
2023-03-06T21:21:22.388Z,95132.31
2023-03-06T21:24:07.505Z,95134.97
2023-03-06T21:26:52.675Z,95135.97
2023-03-06T21:29:37.600Z,95129.78
2023-03-06T21:32:23.164Z,95136.94
2023-03-06T21:35:08.333Z,95139.59
2023-03-06T21:37:53.363Z,95136.09
2023-03-06T21:40:38.266Z,95137.91
2023-03-06T21:43:23.411Z,95139.72
2023-03-06T21:46:08.675Z,95137.19
2023-03-06T21:48:53.881Z,95128.25
2023-03-06T21:51:38.687Z,95132.44
2023-03-06T21:54:23.646Z,95136.69
2023-03-06T21:57:08.536Z,95136.25
2023-03-06T21:59:53.572Z,95145.63
2023-03-06T22:02:38.558Z,95144.38
2023-03-06T22:05:24.171Z,95149.16
2023-03-06T22:08:11.058Z,95144.41
2023-03-06T22:10:56.283Z,95143.28
2023-03-06T22:13:41.461Z,95143.88
2023-03-06T22:16:26.919Z,95139.00
2023-03-06T22:19:12.199Z,95139.59
2023-03-06T22:21:57.379Z,95143.66
2023-03-06T22:24:42.323Z,95140.00
2023-03-06T22:27:28.707Z,95133.41
2023-03-06T22:30:14.071Z,95146.47
2023-03-06T22:32:58.978Z,95138.22
2023-03-06T22:35:44.455Z,95136.25
2023-03-06T22:38:29.752Z,95126.19
2023-03-06T22:41:15.565Z,95133.88
2023-03-06T22:44:01.295Z,95134.56
2023-03-06T22:46:46.226Z,95122.78
2023-03-06T22:49:30.957Z,95118.19
2023-03-06T22:52:18.866Z,95125.75
2023-03-06T22:55:04.428Z,95128.97
2023-03-06T22:57:49.499Z,95118.16
2023-03-06T23:00:34.370Z,95117.75
2023-03-06T23:03:19.561Z,95121.97
2023-03-06T23:06:05.770Z,95105.84
2023-03-06T23:08:55.379Z,95114.41
2023-03-06T23:11:40.619Z,95107.94
2023-03-06T23:14:49.348Z,95098.13
2023-03-06T23:17:53.590Z,95108.63
2023-03-06T23:20:58.810Z,95119.03
2023-03-06T23:24:02.750Z,95118.59
2023-03-06T23:26:47.556Z,95118.44
2023-03-06T23:29:32.368Z,95112.00
2023-03-06T23:32:17.357Z,95115.34
2023-03-06T23:35:02.646Z,95117.63
2023-03-06T23:37:47.728Z,95124.50
2023-03-06T23:40:33.174Z,95116.22
2023-03-06T23:43:18.097Z,95125.75
2023-03-06T23:46:03.663Z,95140.59
2023-03-06T23:48:48.785Z,95142.00
2023-03-06T23:51:34.057Z,95141.03
2023-03-06T23:54:19.394Z,95137.22
2023-03-06T23:57:04.249Z,95122.94
2023-03-06T23:59:49.435Z,95116.72
